Time;durP1;ratioP1;P1;durP2;ratioP2;P2;SDS_P1;SDS_P2;PMS_P1;PMS_P2;Temp;Humidity;BMP_temperature;BMP_pressure;BME280_temperature;BME280_humidity;BME280_pressure;Samples;Min_cycle;Max_cycle;Signal;HPM_P1;HPM_P2
2022/12/25 00:00:01;;;;;;;;;;;;;;;7.67;100.00;101393.22;4892824;29;19958;-63
2022/12/25 00:02:28;;;;;;;;;;;;;;;7.69;100.00;101388.41;4895118;29;19919;-62
2022/12/25 00:04:53;;;;;;;;;;;;;;;7.72;100.00;101388.84;4895165;29;20259;-63
2022/12/25 00:07:18;;;;;;;;;;;;;;;7.73;100.00;101376.88;4893548;29;19920;-64
2022/12/25 00:09:44;;;;;;;;;;;;;;;7.73;100.00;101376.88;4887495;29;19919;-63
2022/12/25 00:12:09;;;;;;;;;;;;;;;7.73;100.00;101365.09;4880752;29;20390;-63
2022/12/25 00:14:34;;;;;;;;;;;;;;;7.73;100.00;101371.41;4894281;29;19926;-63
2022/12/25 00:16:59;;;;;;;;;;;;;;;7.74;100.00;101375.81;4894325;29;20378;-63
2022/12/25 00:19:24;;;;;;;;;;;;;;;7.76;100.00;101383.84;4879139;29;19916;-62
2022/12/25 00:21:50;;;;;;;;;;;;;;;7.75;100.00;101377.50;4883084;29;20686;-62
2022/12/25 00:24:15;;;;;;;;;;;;;;;7.75;100.00;101376.66;4881229;29;19919;-63
2022/12/25 00:26:40;;;;;;;;;;;;;;;7.77;100.00;101380.91;4886564;29;19971;-63
2022/12/25 00:29:05;;;;;;;;;;;;;;;7.77;100.00;101374.59;4894927;29;19919;-63
2022/12/25 00:31:30;;;;;;;;;;;;;;;7.79;100.00;101370.59;4895173;29;19923;-63
2022/12/25 00:33:55;;;;;;;;;;;;;;;7.79;100.00;101373.34;4894223;29;19942;-63
2022/12/25 00:36:21;;;;;;;;;;;;;;;7.80;100.00;101374.16;4893658;29;20022;-63
2022/12/25 00:38:46;;;;;;;;;;;;;;;7.84;100.00;101370.00;4894468;29;19967;-62
2022/12/25 00:41:13;;;;;;;;;;;;;;;7.86;100.00;101372.56;4894950;29;20449;-62
2022/12/25 00:43:40;;;;;;;;;;;;;;;7.86;100.00;101367.94;4894615;29;19915;-63
2022/12/25 00:46:06;;;;;;;;;;;;;;;7.90;100.00;101365.63;4893292;29;19924;-63
2022/12/25 00:48:32;;;;;;;;;;;;;;;7.92;100.00;101360.81;4893693;29;20390;-61
2022/12/25 00:51:04;;;;;;;;;;;;;;;7.92;100.00;101358.06;4894887;29;19965;-63
2022/12/25 00:53:30;;;;;;;;;;;;;;;7.93;100.00;101368.81;4894214;29;19922;-61
2022/12/25 00:55:56;;;;;;;;;;;;;;;7.93;100.00;101363.34;4904584;29;19919;-63
2022/12/25 00:58:22;;;;;;;;;;;;;;;7.95;100.00;101365.84;4894081;29;19922;-61
2022/12/25 01:00:48;;;;;;;;;;;;;;;7.96;100.00;101354.75;4893427;29;19983;-63
2022/12/25 01:03:14;;;;;;;;;;;;;;;7.99;100.00;101354.31;4894281;29;20347;-63
2022/12/25 01:05:39;;;;;;;;;;;;;;;8.01;100.00;101357.72;4893043;29;19927;-62
2022/12/25 01:08:04;;;;;;;;;;;;;;;8.02;100.00;101353.09;4893940;29;19915;-63
2022/12/25 01:10:29;;;;;;;;;;;;;;;8.04;100.00;101356.44;4894248;29;20383;-63
2022/12/25 01:12:54;;;;;;;;;;;;;;;8.04;100.00;101359.19;4894186;29;19919;-63
2022/12/25 01:15:19;;;;;;;;;;;;;;;8.06;100.00;101352.47;4893059;29;20282;-62
2022/12/25 01:17:45;;;;;;;;;;;;;;;8.06;100.00;101351.66;4893051;29;19943;-62
2022/12/25 01:20:11;;;;;;;;;;;;;;;8.06;100.00;101348.91;4894582;29;19920;-63
2022/12/25 01:22:36;;;;;;;;;;;;;;;8.07;100.00;101351.44;4894515;29;19982;-63
2022/12/25 01:25:01;;;;;;;;;;;;;;;8.04;100.00;101350.97;4894154;29;20033;-64
2022/12/25 01:27:26;;;;;;;;;;;;;;;8.05;100.00;101360.88;4893278;29;19923;-61
2022/12/25 01:29:52;;;;;;;;;;;;;;;8.05;100.00;101369.06;4892780;29;19919;-64
2022/12/25 01:32:17;;;;;;;;;;;;;;;8.06;100.00;101370.78;4893985;29;20009;-63
2022/12/25 01:34:42;;;;;;;;;;;;;;;8.06;100.00;101376.25;4893670;29;19931;-64
2022/12/25 01:37:07;;;;;;;;;;;;;;;8.07;100.00;101377.94;4891798;29;20355;-62
2022/12/25 01:39:32;;;;;;;;;;;;;;;8.07;100.00;101373.31;4894764;29;19959;-63
2022/12/25 01:41:58;;;;;;;;;;;;;;;8.14;100.00;101375.25;4893790;29;19963;-63
2022/12/25 01:44:35;;;;;;;;;;;;;;;8.08;100.00;101374.16;4892914;29;19915;-63
2022/12/25 01:47:01;;;;;;;;;;;;;;;8.09;100.00;101372.25;4890755;29;19951;-63
2022/12/25 01:49:26;;;;;;;;;;;;;;;8.11;100.00;101372.91;4894064;29;20003;-63
2022/12/25 01:52:11;;;;;;;;;;;;;;;8.09;100.00;101380.47;4893097;29;19931;-63
2022/12/25 01:54:40;;;;;;;;;;;;;;;8.10;100.00;101376.69;4894137;29;19926;-63
2022/12/25 01:57:08;;;;;;;;;;;;;;;8.11;100.00;101381.97;4893535;29;19975;-63
2022/12/25 01:59:33;;;;;;;;;;;;;;;8.11;100.00;101378.38;4893686;29;19916;-63
2022/12/25 02:01:58;;;;;;;;;;;;;;;8.13;100.00;101384.50;4893695;29;19915;-63
2022/12/25 02:04:37;;;;;;;;;;;;;;;8.14;100.00;101389.75;4892112;29;19920;-63
2022/12/25 02:07:02;;;;;;;;;;;;;;;8.15;100.00;101385.97;4892155;29;19919;-63
2022/12/25 02:09:28;;;;;;;;;;;;;;;8.17;100.00;101388.53;4891551;29;19928;-63
2022/12/25 02:11:56;;;;;;;;;;;;;;;8.18;100.00;101382.00;4891526;29;19931;-63
2022/12/25 02:14:21;;;;;;;;;;;;;;;8.18;100.00;101384.75;4892117;29;19923;-63
2022/12/25 02:16:50;;;;;;;;;;;;;;;8.20;100.00;101388.94;4889963;29;20312;-64
2022/12/25 02:19:35;;;;;;;;;;;;;;;8.21;100.00;101396.13;4892472;29;19919;-63
2022/12/25 02:22:07;;;;;;;;;;;;;;;8.25;100.00;101393.81;4892214;29;19919;-63
2022/12/25 02:24:55;;;;;;;;;;;;;;;8.23;100.00;101394.03;4892646;29;19919;-62
2022/12/25 02:27:36;;;;;;;;;;;;;;;8.24;100.00;101392.97;4882391;29;20073;-62
2022/12/25 02:30:04;;;;;;;;;;;;;;;8.27;100.00;101398.06;4890734;29;19926;-63
2022/12/25 02:32:45;;;;;;;;;;;;;;;8.27;100.00;101394.47;4892883;29;19920;-63
2022/12/25 02:35:17;;;;;;;;;;;;;;;8.28;100.00;101394.28;4892174;29;19953;-62
2022/12/25 02:38:00;;;;;;;;;;;;;;;8.31;100.00;101395.75;4891535;29;19991;-63
2022/12/25 02:40:29;;;;;;;;;;;;;;;8.33;100.00;101389.03;4893086;29;19911;-64
2022/12/25 03:08:23;;;;;;;;;;;;;;;8.21;100.00;101337.81;4890129;29;20018;-63
2022/12/25 03:13:41;;;;;;;;;;;;;;;8.15;100.00;101322.19;4891831;29;20255;-62
2022/12/25 03:18:52;;;;;;;;;;;;;;;8.07;100.00;101301.34;4892109;29;20071;-63
2022/12/25 03:26:54;;;;;;;;;;;;;;;7.91;100.00;101296.22;4892534;29;20001;-63
2022/12/25 03:32:07;;;;;;;;;;;;;;;7.82;100.00;101290.06;4892176;29;19926;-63
2022/12/25 04:36:17;;;;;;;;;;;;;;;7.64;100.00;101285.09;4895173;29;20291;-63
2022/12/25 04:38:42;;;;;;;;;;;;;;;7.63;100.00;101283.44;4893956;29;19998;-64
2022/12/25 04:41:09;;;;;;;;;;;;;;;7.63;100.00;101286.16;4894925;29;19995;-64
2022/12/25 04:43:34;;;;;;;;;;;;;;;7.61;100.00;101276.50;4888614;29;19969;-63
2022/12/25 04:46:01;;;;;;;;;;;;;;;7.61;100.00;101285.53;4892704;29;19950;-63
2022/12/25 04:48:26;;;;;;;;;;;;;;;7.60;100.00;101285.72;4894315;29;19919;-63
2022/12/25 04:50:52;;;;;;;;;;;;;;;7.64;100.00;101284.28;4893983;29;19915;-63
2022/12/25 04:53:18;;;;;;;;;;;;;;;7.61;100.00;101285.53;4893080;29;19927;-63
2022/12/25 04:55:43;;;;;;;;;;;;;;;7.59;100.00;101284.88;4891418;29;19959;-63
2022/12/25 04:58:08;;;;;;;;;;;;;;;7.59;100.00;101281.28;4894302;29;19943;-63
2022/12/25 05:00:33;;;;;;;;;;;;;;;7.57;100.00;101276.03;4894034;29;19915;-63
2022/12/25 05:02:58;;;;;;;;;;;;;;;7.57;100.00;101275.19;4893031;29;19916;-63
2022/12/25 05:05:24;;;;;;;;;;;;;;;7.56;100.00;101273.50;4894267;29;19912;-63
2022/12/25 05:07:49;;;;;;;;;;;;;;;7.53;100.00;101274.75;4891864;29;20283;-63
2022/12/25 05:10:14;;;;;;;;;;;;;;;7.51;100.00;101276.84;4892633;29;19931;-64
2022/12/25 05:12:40;;;;;;;;;;;;;;;7.47;100.00;101278.28;4893635;29;19926;-63
2022/12/25 05:15:05;;;;;;;;;;;;;;;7.43;100.00;101271.50;4891932;29;19919;-63
2022/12/25 05:17:30;;;;;;;;;;;;;;;7.42;100.00;101269.84;4893184;29;20014;-63
2022/12/25 05:19:55;;;;;;;;;;;;;;;7.40;100.00;101266.44;4893181;29;19926;-64
2022/12/25 05:22:21;;;;;;;;;;;;;;;7.40;100.00;101260.97;4893146;29;19924;-63
2022/12/25 05:24:46;;;;;;;;;;;;;;;7.38;100.00;101255.72;4893057;29;20331;-64
2022/12/25 05:27:11;;;;;;;;;;;;;;;7.36;100.00;101268.75;4893860;29;19972;-63
2022/12/25 05:29:36;;;;;;;;;;;;;;;7.37;100.00;101258.66;4893056;29;20279;-64
2022/12/25 05:32:02;;;;;;;;;;;;;;;7.35;100.00;101242.47;4893471;29;19923;-64
2022/12/25 05:34:27;;;;;;;;;;;;;;;7.34;100.00;101245.38;4891541;29;19955;-64
2022/12/25 05:36:52;;;;;;;;;;;;;;;7.35;100.00;101237.00;4892434;29;20022;-64
2022/12/25 05:39:17;;;;;;;;;;;;;;;7.41;100.00;101232.63;4893937;29;20278;-61
2022/12/25 05:41:42;;;;;;;;;;;;;;;7.40;100.00;101229.06;4893148;29;19922;-63
2022/12/25 05:44:07;;;;;;;;;;;;;;;7.41;100.00;101233.47;4892954;29;19919;-63
2022/12/25 05:46:33;;;;;;;;;;;;;;;7.43;100.00;101230.53;4893531;29;19919;-64
2022/12/25 05:48:58;;;;;;;;;;;;;;;7.50;100.00;101239.59;4892891;29;19927;-63
2022/12/25 05:51:24;;;;;;;;;;;;;;;7.52;100.00;101243.00;4891854;29;19926;-62
2022/12/25 05:53:50;;;;;;;;;;;;;;;7.59;100.00;101253.97;4892170;29;19927;-64
2022/12/25 05:56:15;;;;;;;;;;;;;;;7.62;100.00;101243.47;4892831;29;19919;-64
2022/12/25 05:58:40;;;;;;;;;;;;;;;7.67;100.00;101248.34;4890432;29;20360;-62
2022/12/25 06:01:09;;;;;;;;;;;;;;;7.79;100.00;101249.44;4892793;29;20002;-63
2022/12/25 06:03:34;;;;;;;;;;;;;;;7.78;100.00;101239.56;4892964;29;20700;-63
2022/12/25 06:06:01;;;;;;;;;;;;;;;7.83;100.00;101230.75;4890811;29;20007;-64
2022/12/25 06:08:26;;;;;;;;;;;;;;;7.85;100.00;101213.06;4890275;29;19919;-64
2022/12/25 06:10:51;;;;;;;;;;;;;;;7.88;100.00;101225.50;4891565;29;19919;-63
2022/12/25 06:13:16;;;;;;;;;;;;;;;7.91;100.00;101225.97;4891792;29;19934;-64
2022/12/25 06:15:41;;;;;;;;;;;;;;;7.95;100.00;101221.75;4893071;29;20377;-64
2022/12/25 06:18:07;;;;;;;;;;;;;;;7.97;100.00;101227.03;4892916;29;20371;-63
2022/12/25 06:20:32;;;;;;;;;;;;;;;7.99;100.00;101212.09;4893542;29;19915;-63
2022/12/25 06:22:58;;;;;;;;;;;;;;;8.05;100.00;101211.25;4891111;29;19953;-63
2022/12/25 06:25:23;;;;;;;;;;;;;;;8.08;100.00;101201.81;4891930;29;20005;-63
2022/12/25 06:27:49;;;;;;;;;;;;;;;8.08;100.00;101190.88;4892327;29;19915;-63
2022/12/25 06:30:14;;;;;;;;;;;;;;;8.10;100.00;101188.75;4892230;29;19923;-64
2022/12/25 06:32:39;;;;;;;;;;;;;;;8.12;100.00;101192.16;4892889;29;19979;-64
2022/12/25 06:35:04;;;;;;;;;;;;;;;8.12;100.00;101189.41;4892024;29;20005;-63
2022/12/25 06:37:30;;;;;;;;;;;;;;;8.14;100.00;101184.56;4890505;29;19927;-62
2022/12/25 06:39:55;;;;;;;;;;;;;;;8.16;100.00;101185.22;4890369;29;19919;-63
2022/12/25 06:42:20;;;;;;;;;;;;;;;8.16;100.00;101174.28;4892210;29;19927;-63
2022/12/25 06:44:46;;;;;;;;;;;;;;;8.17;100.00;101170.50;4891529;29;19926;-62
2022/12/25 06:47:11;;;;;;;;;;;;;;;8.18;100.00;101158.50;4890394;29;19920;-63
2022/12/25 06:49:36;;;;;;;;;;;;;;;8.18;100.00;101169.44;4893193;29;19942;-63
2022/12/25 06:52:01;;;;;;;;;;;;;;;8.19;100.00;101170.28;4891849;29;20025;-63
2022/12/25 06:54:27;;;;;;;;;;;;;;;8.20;100.00;101164.59;4891334;29;19927;-63
2022/12/25 06:56:52;;;;;;;;;;;;;;;8.19;100.00;101143.75;4895084;29;19919;-63
2022/12/25 06:59:17;;;;;;;;;;;;;;;8.22;100.00;101131.56;4898290;29;19919;-62
2022/12/25 07:01:49;;;;;;;;;;;;;;;8.23;100.00;101125.88;4891678;29;19922;-64
2022/12/25 07:04:27;;;;;;;;;;;;;;;8.22;100.00;101128.81;4891180;29;19969;-62
2022/12/25 07:06:52;;;;;;;;;;;;;;;8.23;100.00;101131.34;4891933;29;19935;-63
2022/12/25 07:09:17;;;;;;;;;;;;;;;8.23;100.00;101131.34;4891561;29;20014;-63
2022/12/25 07:11:42;;;;;;;;;;;;;;;8.22;100.00;101137.88;4891592;29;19923;-64
2022/12/25 07:14:13;;;;;;;;;;;;;;;8.21;100.00;101136.19;4894962;29;19915;-63
2022/12/25 07:16:39;;;;;;;;;;;;;;;8.21;100.00;101149.88;4894594;29;19964;-62
2022/12/25 07:19:04;;;;;;;;;;;;;;;8.24;100.00;101143.13;4895645;29;20401;-63
2022/12/25 07:21:29;;;;;;;;;;;;;;;8.22;100.00;101153.44;4896231;29;19970;-63
2022/12/25 07:23:54;;;;;;;;;;;;;;;8.20;100.00;101161.00;4892282;29;20260;-63
2022/12/25 07:26:20;;;;;;;;;;;;;;;8.19;100.00;101175.75;4894252;29;20017;-63
2022/12/25 07:28:45;;;;;;;;;;;;;;;8.19;100.00;101179.31;4894437;29;20063;-63
2022/12/25 07:31:12;;;;;;;;;;;;;;;8.17;100.00;101175.97;4895481;29;19934;-63
2022/12/25 07:33:37;;;;;;;;;;;;;;;8.17;100.00;101181.44;4895097;29;19919;-63
2022/12/25 07:36:04;;;;;;;;;;;;;;;8.17;100.00;101178.69;4895789;29;20295;-63
2022/12/25 07:38:29;;;;;;;;;;;;;;;8.19;100.00;101178.47;4892603;29;19974;-63
2022/12/25 07:40:54;;;;;;;;;;;;;;;8.18;100.00;101176.81;4893514;29;20009;-63
2022/12/25 07:43:19;;;;;;;;;;;;;;;8.19;100.00;101173.00;4894344;29;20290;-63
2022/12/25 07:45:45;;;;;;;;;;;;;;;8.18;100.00;101150.28;4895815;29;19917;-62
2022/12/25 07:48:10;;;;;;;;;;;;;;;8.18;100.00;101142.06;4892462;29;19928;-63
2022/12/25 07:50:35;;;;;;;;;;;;;;;8.16;100.00;101137.84;4895634;29;20236;-62
2022/12/25 07:53:01;;;;;;;;;;;;;;;8.15;100.00;101150.69;4893858;29;20301;-62
2022/12/25 07:55:26;;;;;;;;;;;;;;;8.14;100.00;101154.47;4894860;29;20252;-63
2022/12/25 07:57:51;;;;;;;;;;;;;;;8.15;100.00;101160.78;4894191;29;19937;-62
2022/12/25 08:00:16;;;;;;;;;;;;;;;8.15;100.00;101182.66;4893314;29;19959;-62
2022/12/25 08:02:42;;;;;;;;;;;;;;;8.16;100.00;101198.91;4893029;29;19923;-63
2022/12/25 08:05:07;;;;;;;;;;;;;;;8.17;100.00;101207.94;4895934;29;20029;-63
2022/12/25 08:07:32;;;;;;;;;;;;;;;8.16;100.00;101201.63;4895314;29;19963;-63
2022/12/25 08:09:57;;;;;;;;;;;;;;;8.17;100.00;101207.94;4892389;29;20375;-63
2022/12/25 08:12:23;;;;;;;;;;;;;;;8.18;100.00;101205.00;4904875;29;19926;-62
2022/12/25 08:14:48;;;;;;;;;;;;;;;8.18;100.00;101198.69;4890965;29;20488;-63
2022/12/25 08:17:13;;;;;;;;;;;;;;;8.17;100.00;101197.84;4892839;29;19919;-63
2022/12/25 08:19:38;;;;;;;;;;;;;;;8.18;100.00;101210.47;4894331;29;19940;-62
2022/12/25 08:22:03;;;;;;;;;;;;;;;8.17;100.00;101229.84;4894414;29;19961;-62
2022/12/25 08:24:28;;;;;;;;;;;;;;;8.17;100.00;101230.69;4892223;29;20262;-62
2022/12/25 08:26:54;;;;;;;;;;;;;;;8.17;100.00;101222.47;4893343;29;19962;-62
2022/12/25 08:29:19;;;;;;;;;;;;;;;8.18;100.00;101221.41;4894197;29;19915;-62
2022/12/25 08:31:44;;;;;;;;;;;;;;;8.19;100.00;101193.00;4893375;29;19915;-62
2022/12/25 08:34:10;;;;;;;;;;;;;;;8.19;100.00;101203.09;4892778;29;19919;-62
2022/12/25 08:36:35;;;;;;;;;;;;;;;8.19;100.00;101208.56;4893447;29;20347;-62
2022/12/25 08:39:00;;;;;;;;;;;;;;;8.19;100.00;101209.41;4894506;29;19915;-63
2022/12/25 08:41:25;;;;;;;;;;;;;;;8.19;100.00;101201.22;4894095;29;20359;-62
2022/12/25 08:43:51;;;;;;;;;;;;;;;8.20;100.00;101213.84;4893369;29;19990;-62
2022/12/25 08:46:16;;;;;;;;;;;;;;;8.23;100.00;101218.91;4894550;29;19912;-62
2022/12/25 08:48:42;;;;;;;;;;;;;;;8.21;100.00;101215.53;4893485;29;20411;-63
2022/12/25 08:51:10;;;;;;;;;;;;;;;8.21;100.00;101215.53;4893969;29;19922;-61
2022/12/25 08:53:35;;;;;;;;;;;;;;;8.23;100.00;101215.31;4894102;29;20289;-62
2022/12/25 08:56:03;;;;;;;;;;;;;;;8.23;100.00;101209.84;4894255;29;20001;-62
2022/12/25 08:58:28;;;;;;;;;;;;;;;8.23;100.00;101207.13;4890477;29;19926;-63
2022/12/25 09:00:53;;;;;;;;;;;;;;;8.25;100.00;101197.63;4891734;29;19923;-62
2022/12/25 09:03:19;;;;;;;;;;;;;;;8.24;100.00;101193.22;4893821;29;19915;-62
2022/12/25 09:05:44;;;;;;;;;;;;;;;8.24;100.00;101201.44;4893744;29;19919;-62
2022/12/25 09:08:09;;;;;;;;;;;;;;;8.25;100.00;101200.38;4893809;29;19915;-61
2022/12/25 09:10:35;;;;;;;;;;;;;;;8.26;100.00;101195.75;4892809;29;20253;-62
2022/12/25 09:13:01;;;;;;;;;;;;;;;8.24;100.00;101190.50;4893239;29;19922;-62
2022/12/25 09:15:26;;;;;;;;;;;;;;;8.29;100.00;101184.41;4894109;29;19915;-62
2022/12/25 09:17:51;;;;;;;;;;;;;;;8.25;100.00;101196.81;4893471;29;20342;-62
2022/12/25 09:20:16;;;;;;;;;;;;;;;8.25;100.00;101200.38;4893658;29;20315;-62
2022/12/25 09:22:41;;;;;;;;;;;;;;;8.28;100.00;101210.91;4893457;29;20010;-63
2022/12/25 09:25:07;;;;;;;;;;;;;;;8.33;100.00;101213.03;4893245;29;19927;-62
2022/12/25 09:27:32;;;;;;;;;;;;;;;8.37;100.00;101213.50;4892238;29;19970;-62
2022/12/25 09:29:57;;;;;;;;;;;;;;;8.40;100.00;101208.44;4893084;29;20343;-62
2022/12/25 09:32:22;;;;;;;;;;;;;;;8.42;100.00;101203.63;4887032;29;19948;-63
2022/12/25 09:34:49;;;;;;;;;;;;;;;8.42;100.00;101184.47;4893006;29;19923;-62
2022/12/25 09:37:14;;;;;;;;;;;;;;;8.44;100.00;101203.41;4889731;29;19991;-62
2022/12/25 09:39:39;;;;;;;;;;;;;;;8.46;100.00;101209.50;4892390;29;19919;-63
2022/12/25 09:42:12;;;;;;;;;;;;;;;8.45;100.00;101191.41;4893227;29;19962;-64
2022/12/25 09:44:43;;;;;;;;;;;;;;;8.45;100.00;101166.75;4892568;29;19916;-63
2022/12/25 09:47:13;;;;;;;;;;;;;;;8.44;100.00;101165.09;4893512;29;19915;-63
2022/12/25 09:49:45;;;;;;;;;;;;;;;8.42;100.00;101178.16;4892543;29;20414;-64
2022/12/25 09:52:16;;;;;;;;;;;;;;;8.42;100.00;101168.03;4892799;29;19971;-63
2022/12/25 09:54:41;;;;;;;;;;;;;;;8.41;100.00;101176.44;4893082;29;19915;-63
2022/12/25 09:57:10;;;;;;;;;;;;;;;8.43;100.00;101168.88;4893172;29;19926;-62
2022/12/25 09:59:35;;;;;;;;;;;;;;;8.43;100.00;101155.19;4892835;29;19935;-64
2022/12/25 10:02:18;;;;;;;;;;;;;;;8.43;100.00;101152.47;4893069;29;19911;-63
2022/12/25 10:05:01;;;;;;;;;;;;;;;8.42;100.00;101159.81;4893042;29;19994;-63
2022/12/25 10:07:34;;;;;;;;;;;;;;;8.40;100.00;101148.22;4892578;29;20310;-63
2022/12/25 10:10:06;;;;;;;;;;;;;;;8.39;100.00;101142.97;4892687;29;19919;-63
2022/12/25 10:12:37;;;;;;;;;;;;;;;8.39;100.00;101146.53;4892506;29;20331;-63
2022/12/25 10:15:09;;;;;;;;;;;;;;;8.37;100.00;101134.97;4891813;29;20374;-62
2022/12/25 10:17:58;;;;;;;;;;;;;;;8.37;100.00;101132.25;4893097;29;19915;-63
2022/12/25 10:20:23;;;;;;;;;;;;;;;8.36;100.00;101132.41;4889804;29;19973;-64
2022/12/25 10:22:55;;;;;;;;;;;;;;;8.36;100.00;101135.13;4891578;29;19954;-62
2022/12/25 10:25:23;;;;;;;;;;;;;;;8.38;100.00;101138.56;4885678;29;20022;-62
2022/12/25 10:27:50;;;;;;;;;;;;;;;8.36;100.00;101125.06;4872969;29;19915;-62
2022/12/25 10:30:17;;;;;;;;;;;;;;;8.36;100.00;101124.19;4874031;29;19916;-61
2022/12/25 10:32:43;;;;;;;;;;;;;;;8.36;100.00;101135.13;4873649;29;20015;-64
2022/12/25 10:35:15;;;;;;;;;;;;;;;8.32;100.00;101124.63;4880474;29;19925;-62
2022/12/25 10:37:42;;;;;;;;;;;;;;;8.30;100.00;101132.19;4890640;29;20006;-62
2022/12/25 10:40:30;;;;;;;;;;;;;;;8.27;100.00;101135.34;4891801;29;19942;-62
2022/12/25 10:43:22;;;;;;;;;;;;;;;8.26;100.00;101128.19;4883321;29;19925;-62
2022/12/25 10:45:48;;;;;;;;;;;;;;;8.25;100.00;101126.50;4887093;29;19919;-63
2022/12/25 10:48:32;;;;;;;;;;;;;;;8.26;100.00;101132.81;4893860;29;20410;-63
2022/12/25 10:50:57;;;;;;;;;;;;;;;8.25;100.00;101131.97;4893100;29;19971;-63
2022/12/25 10:53:26;;;;;;;;;;;;;;;8.25;100.00;101118.28;4893372;29;19966;-63
2022/12/25 10:55:56;;;;;;;;;;;;;;;8.26;100.00;101103.56;4891015;29;20613;-63
2022/12/25 10:58:21;;;;;;;;;;;;;;;8.27;100.00;101093.47;4892603;29;19923;-62
2022/12/25 11:00:51;;;;;;;;;;;;;;;8.28;100.00;101079.56;4894750;29;19963;-62
2022/12/25 11:03:22;;;;;;;;;;;;;;;8.30;100.00;101074.72;4894491;29;19915;-63
2022/12/25 11:05:49;;;;;;;;;;;;;;;8.33;100.00;101078.94;4898181;29;19988;-63
2022/12/25 11:08:17;;;;;;;;;;;;;;;8.33;100.00;101093.47;4913042;29;20017;-62
2022/12/25 11:10:43;;;;;;;;;;;;;;;8.35;100.00;101084.19;4913333;29;19919;-63
2022/12/25 11:13:19;;;;;;;;;;;;;;;8.34;100.00;101075.16;4912800;29;20334;-62
2022/12/25 11:15:46;;;;;;;;;;;;;;;8.33;100.00;101068.84;4896874;29;19926;-63
2022/12/25 11:18:20;;;;;;;;;;;;;;;8.30;100.00;101080.19;4894788;29;19919;-63
2022/12/25 11:20:52;;;;;;;;;;;;;;;8.30;100.00;101060.19;4893556;29;20327;-63
2022/12/25 11:23:21;;;;;;;;;;;;;;;8.32;100.00;101056.22;4894115;29;19926;-63
2022/12/25 11:25:54;;;;;;;;;;;;;;;8.33;100.00;101049.69;4894881;29;20420;-63
2022/12/25 11:28:19;;;;;;;;;;;;;;;8.37;100.00;101044.66;4895249;29;19947;-62
2022/12/25 11:30:48;;;;;;;;;;;;;;;8.33;100.00;101038.72;4894694;29;20303;-62
2022/12/25 11:33:13;;;;;;;;;;;;;;;8.37;100.00;101028.25;4895719;29;20418;-62
2022/12/25 11:35:44;;;;;;;;;;;;;;;8.35;100.00;101022.09;4892674;29;20014;-63
2022/12/25 11:38:10;;;;;;;;;;;;;;;8.36;100.00;101012.84;4895284;29;19923;-62
2022/12/25 11:40:56;;;;;;;;;;;;;;;8.39;100.00;101011.59;4896048;29;19915;-62
2022/12/25 11:43:22;;;;;;;;;;;;;;;8.37;100.00;101014.56;4893396;29;19963;-62
2022/12/25 11:46:00;;;;;;;;;;;;;;;8.40;100.00;101008.66;4894668;29;19927;-63
2022/12/25 11:48:47;;;;;;;;;;;;;;;8.37;100.00;101011.81;4895524;29;19919;-63
2022/12/25 11:51:13;;;;;;;;;;;;;;;8.35;100.00;101016.63;4894384;29;20351;-62
2022/12/25 11:53:50;;;;;;;;;;;;;;;8.34;100.00;101009.47;4893606;29;20027;-63
2022/12/25 11:56:23;;;;;;;;;;;;;;;8.33;100.00;101005.88;4892866;29;20283;-62
2022/12/25 11:58:51;;;;;;;;;;;;;;;8.36;100.00;101004.63;4890184;29;19927;-63
2022/12/25 12:01:21;;;;;;;;;;;;;;;8.36;100.00;100992.81;4892999;29;20397;-65
2022/12/25 12:03:46;;;;;;;;;;;;;;;8.37;100.00;100991.84;4893626;29;19930;-62
2022/12/25 12:06:17;;;;;;;;;;;;;;;8.40;100.00;100991.38;4892876;29;19915;-66
2022/12/25 12:08:44;;;;;;;;;;;;;;;8.43;100.00;100994.53;4894222;29;20040;-65
2022/12/25 12:11:16;;;;;;;;;;;;;;;8.48;100.00;100991.16;4894830;29;19919;-64
2022/12/25 12:13:42;;;;;;;;;;;;;;;8.48;100.00;100985.69;4893473;29;20326;-61
2022/12/25 12:16:08;;;;;;;;;;;;;;;8.48;100.00;100988.44;4894008;29;19944;-62
2022/12/25 12:18:33;;;;;;;;;;;;;;;8.47;100.00;100997.72;4894507;29;19919;-65
2022/12/25 12:21:06;;;;;;;;;;;;;;;8.49;100.00;100990.13;4893220;29;19950;-66
2022/12/25 12:23:53;;;;;;;;;;;;;;;8.49;100.00;100995.59;4894694;29;19930;-66
2022/12/25 12:26:23;;;;;;;;;;;;;;;8.52;100.00;100984.22;4894340;29;19915;-64
2022/12/25 12:28:50;;;;;;;;;;;;;;;8.51;100.00;100990.72;4892201;29;19923;-65
2022/12/25 12:31:15;;;;;;;;;;;;;;;8.51;100.00;100990.72;4894818;29;20467;-64
2022/12/25 12:34:01;;;;;;;;;;;;;;;8.51;100.00;100985.25;4894604;29;19919;-64
2022/12/25 12:36:26;;;;;;;;;;;;;;;8.49;100.00;100968.22;4893804;29;20426;-65
2022/12/25 12:38:53;;;;;;;;;;;;;;;8.49;100.00;100951.78;4893530;29;19915;-63
2022/12/25 12:41:20;;;;;;;;;;;;;;;8.49;100.00;100944.41;4893393;29;19919;-66
2022/12/25 12:43:51;;;;;;;;;;;;;;;8.51;100.00;100950.50;4893509;29;19919;-65
2022/12/25 12:46:20;;;;;;;;;;;;;;;8.52;100.00;100945.91;4894270;29;19922;-63
2022/12/25 12:48:47;;;;;;;;;;;;;;;8.54;100.00;100943.78;4893674;29;19990;-67
2022/12/25 12:51:13;;;;;;;;;;;;;;;8.58;100.00;100939.56;4894971;29;19970;-65
2022/12/25 12:53:42;;;;;;;;;;;;;;;8.58;100.00;100945.88;4893832;29;19927;-62
2022/12/25 12:56:15;;;;;;;;;;;;;;;8.54;100.00;100944.63;4894268;29;20307;-63
2022/12/25 12:58:45;;;;;;;;;;;;;;;8.52;100.00;100941.25;4890353;29;19973;-66
2022/12/25 13:01:14;;;;;;;;;;;;;;;8.53;100.00;100940.19;4893703;29;19923;-67
2022/12/25 13:03:50;;;;;;;;;;;;;;;8.52;100.00;100937.69;4893884;29;20358;-64
2022/12/25 13:06:39;;;;;;;;;;;;;;;8.53;100.00;100928.41;4893919;29;19962;-64
2022/12/25 13:09:19;;;;;;;;;;;;;;;8.56;100.00;100925.22;4894021;29;19923;-62
2022/12/25 13:11:45;;;;;;;;;;;;;;;8.60;100.00;100923.75;4891998;29;19973;-68
2022/12/25 13:14:14;;;;;;;;;;;;;;;8.61;100.00;100921.84;4892171;29;19962;-66
2022/12/25 13:16:41;;;;;;;;;;;;;;;8.63;100.00;100923.31;4891309;29;20327;-65
2022/12/25 13:19:10;;;;;;;;;;;;;;;8.66;100.00;100920.13;4891665;29;20002;-62
2022/12/25 13:21:36;;;;;;;;;;;;;;;8.66;100.00;100914.66;4892596;29;19915;-61
2022/12/25 13:24:02;;;;;;;;;;;;;;;8.67;100.00;100913.63;4892524;29;19943;-63
2022/12/25 13:26:28;;;;;;;;;;;;;;;8.69;100.00;100906.03;4891689;29;19915;-68
2022/12/25 13:28:54;;;;;;;;;;;;;;;8.72;100.00;100902.03;4890539;29;19926;-67
2022/12/25 13:31:20;;;;;;;;;;;;;;;8.71;100.00;100901.16;4890973;29;19911;-65
2022/12/25 13:33:48;;;;;;;;;;;;;;;8.73;100.00;100898.22;4892030;29;20002;-69
2022/12/25 13:36:13;;;;;;;;;;;;;;;8.76;100.00;100901.34;4891792;29;19919;-62
2022/12/25 13:38:46;;;;;;;;;;;;;;;8.77;100.00;100886.63;4890952;29;19978;-64
2022/12/25 13:43:59;;;;;;;;;;;;;;;8.81;100.00;100874.16;4891942;29;19971;-67
2022/12/25 13:46:26;;;;;;;;;;;;;;;8.83;100.00;100880.25;4892263;29;20331;-66
2022/12/25 13:48:56;;;;;;;;;;;;;;;8.84;100.00;100879.19;4891190;29;19911;-67
2022/12/25 13:51:21;;;;;;;;;;;;;;;8.84;100.00;100887.41;4891730;29;19923;-64
2022/12/25 13:53:46;;;;;;;;;;;;;;;8.84;100.00;100879.19;4892242;29;19995;-64
2022/12/25 13:56:13;;;;;;;;;;;;;;;8.82;100.00;100884.06;4887165;29;19954;-64
2022/12/25 13:58:38;;;;;;;;;;;;;;;8.82;100.00;100873.13;4890384;29;20292;-65
2022/12/25 14:01:04;;;;;;;;;;;;;;;8.82;100.00;100867.63;4893349;29;19974;-64
2022/12/25 14:03:34;;;;;;;;;;;;;;;8.83;100.00;100868.47;4893073;29;19959;-64
2022/12/25 14:06:00;;;;;;;;;;;;;;;8.81;100.00;100867.84;4891811;29;19919;-65
2022/12/25 14:08:27;;;;;;;;;;;;;;;8.83;100.00;100865.72;4892739;29;20326;-64
2022/12/25 14:10:52;;;;;;;;;;;;;;;8.80;100.00;100867.00;4891949;29;19923;-64
2022/12/25 14:13:19;;;;;;;;;;;;;;;8.77;100.00;100864.72;4891358;29;19971;-64
2022/12/25 14:15:46;;;;;;;;;;;;;;;8.80;100.00;100866.16;4891319;29;20290;-64
2022/12/25 14:18:16;;;;;;;;;;;;;;;8.74;100.00;100872.50;4891660;29;19919;-64
2022/12/25 14:20:53;;;;;;;;;;;;;;;8.72;100.00;100860.97;4892547;29;20002;-66